Pagrindinis puslapis
METAR-TAF:

METAR-TAF

Oro uostai :

Formosa, Argentina

platuma: 26-12S, ilguma: 058-14W, Aukštis: 59 m

Dabartinis oras

Ataskaita buvo paskelbta 18 minutes, ne 08:00 UTC
Vėjas 4 kt iš Pietų
Temperatūra 21°C
Drėgmė 94%
Slėgis 1008 hPa
Matomumas 10 km arba daugiau
nėra debesų žemiau 1500 m ir nėra kamuolinių lietaus debesų

METAR: SARF 240800Z 18004KT CAVOK 21/20 Q1008

Laikas: 05:18 (08:18 UTC)

Prognozė

Ataskaita buvo paskelbta 3 valandos ir 18 minutes, ne 05:00 UTC
Prognozė galioja nuo 24 metu 06 UTC su 25 metu 06 UTC
Vėjas 5 kt iš Pietų
Matomumas: 2000 m
rūkana
Tapsmas
nuo 24 metu 09 UTC su 24 metu 10 UTC
Matomumas 10 km arba daugiau
Išsisklaidę debesys ne aukštis 3000 ft

TAF: SARF 240500Z 2406/2506 18005KT 2000 BR NSC TX32/2419Z TN19/2409Z BECMG 2409/2410 9999 SCT030

Orai ataskaitas ir orų prognozės (METAR, TAF).

turimą stotys yra geltonos ir raudonos taškus žemėlapyje.

Perkelti pele per norėdami pamatyti stoties vardą.

Tada spustelėkite, norėdami matyti oro stebėjimo ir prognozės.

Norėdami pakeisti žemėlapį: spustelėkite ant žalios mygtukų su juodo kryžiaus žemyn,; žalią mygtuką su brūkšneliu, jei norite nutolinti; arba žalių rodyklių gretimoms žemėlapius.


METAR-TAF: